sensor_id;sensor_type;location;lat;lon;timestamp;P1;durP1;ratioP1;P2;durP2;ratioP2
69260;SDS011;56378;52.404;20.816;2024-03-22T00:01:42;58.72;;;27.90;;
69260;SDS011;56378;52.404;20.816;2024-03-22T00:04:08;60.07;;;27.27;;
69260;SDS011;56378;52.404;20.816;2024-03-22T00:06:34;61.45;;;27.63;;
69260;SDS011;56378;52.404;20.816;2024-03-22T00:09:00;61.55;;;27.90;;
69260;SDS011;56378;52.404;20.816;2024-03-22T00:11:25;60.70;;;28.52;;
69260;SDS011;56378;52.404;20.816;2024-03-22T00:13:51;62.83;;;27.93;;
69260;SDS011;56378;52.404;20.816;2024-03-22T00:16:17;62.20;;;28.30;;
69260;SDS011;56378;52.404;20.816;2024-03-22T00:18:42;62.50;;;28.33;;
69260;SDS011;56378;52.404;20.816;2024-03-22T00:21:08;58.03;;;26.85;;
69260;SDS011;56378;52.404;20.816;2024-03-22T00:23:33;63.77;;;28.17;;
69260;SDS011;56378;52.404;20.816;2024-03-22T00:25:59;58.10;;;26.80;;
69260;SDS011;56378;52.404;20.816;2024-03-22T00:28:25;66.10;;;28.38;;
69260;SDS011;56378;52.404;20.816;2024-03-22T00:30:50;64.60;;;28.63;;
69260;SDS011;56378;52.404;20.816;2024-03-22T00:33:18;60.80;;;29.02;;
69260;SDS011;56378;52.404;20.816;2024-03-22T00:35:43;62.90;;;29.88;;
69260;SDS011;56378;52.404;20.816;2024-03-22T00:38:09;64.23;;;28.53;;
69260;SDS011;56378;52.404;20.816;2024-03-22T00:40:35;64.82;;;29.98;;
69260;SDS011;56378;52.404;20.816;2024-03-22T00:43:00;61.23;;;30.10;;
69260;SDS011;56378;52.404;20.816;2024-03-22T00:45:26;60.13;;;28.27;;
69260;SDS011;56378;52.404;20.816;2024-03-22T00:47:52;59.42;;;29.15;;
69260;SDS011;56378;52.404;20.816;2024-03-22T00:50:18;60.47;;;28.57;;
69260;SDS011;56378;52.404;20.816;2024-03-22T00:52:44;61.85;;;28.58;;
69260;SDS011;56378;52.404;20.816;2024-03-22T00:55:09;57.37;;;27.20;;
69260;SDS011;56378;52.404;20.816;2024-03-22T00:57:35;60.85;;;28.58;;
69260;SDS011;56378;52.404;20.816;2024-03-22T01:00:01;63.33;;;28.63;;
69260;SDS011;56378;52.404;20.816;2024-03-22T01:02:26;63.90;;;29.77;;
69260;SDS011;56378;52.404;20.816;2024-03-22T01:04:52;63.03;;;28.90;;
69260;SDS011;56378;52.404;20.816;2024-03-22T01:07:18;64.38;;;30.15;;
69260;SDS011;56378;52.404;20.816;2024-03-22T01:09:43;57.10;;;27.67;;
69260;SDS011;56378;52.404;20.816;2024-03-22T01:12:10;66.65;;;29.48;;
69260;SDS011;56378;52.404;20.816;2024-03-22T01:14:35;62.80;;;28.63;;
69260;SDS011;56378;52.404;20.816;2024-03-22T01:17:01;64.10;;;29.77;;
69260;SDS011;56378;52.404;20.816;2024-03-22T01:19:27;63.33;;;28.70;;
69260;SDS011;56378;52.404;20.816;2024-03-22T01:21:53;68.67;;;29.67;;
69260;SDS011;56378;52.404;20.816;2024-03-22T01:24:18;65.47;;;28.53;;
69260;SDS011;56378;52.404;20.816;2024-03-22T01:26:44;66.13;;;30.23;;
69260;SDS011;56378;52.404;20.816;2024-03-22T01:29:10;62.63;;;30.55;;
69260;SDS011;56378;52.404;20.816;2024-03-22T01:31:35;66.77;;;30.67;;
69260;SDS011;56378;52.404;20.816;2024-03-22T01:34:01;68.13;;;30.48;;
69260;SDS011;56378;52.404;20.816;2024-03-22T01:36:27;66.60;;;30.77;;
69260;SDS011;56378;52.404;20.816;2024-03-22T01:38:52;63.28;;;30.95;;
69260;SDS011;56378;52.404;20.816;2024-03-22T01:41:18;63.97;;;29.80;;
69260;SDS011;56378;52.404;20.816;2024-03-22T01:43:44;68.22;;;30.95;;
69260;SDS011;56378;52.404;20.816;2024-03-22T01:46:09;70.13;;;29.83;;
69260;SDS011;56378;52.404;20.816;2024-03-22T01:48:35;70.40;;;31.38;;
69260;SDS011;56378;52.404;20.816;2024-03-22T01:51:02;66.97;;;30.83;;
69260;SDS011;56378;52.404;20.816;2024-03-22T01:53:29;68.13;;;31.00;;
69260;SDS011;56378;52.404;20.816;2024-03-22T01:55:55;67.22;;;30.67;;
69260;SDS011;56378;52.404;20.816;2024-03-22T01:58:21;67.63;;;30.87;;
69260;SDS011;56378;52.404;20.816;2024-03-22T02:00:47;65.50;;;31.67;;
69260;SDS011;56378;52.404;20.816;2024-03-22T02:03:14;69.13;;;30.83;;
69260;SDS011;56378;52.404;20.816;2024-03-22T02:05:40;67.90;;;29.83;;
69260;SDS011;56378;52.404;20.816;2024-03-22T02:08:06;65.10;;;30.63;;
69260;SDS011;56378;52.404;20.816;2024-03-22T02:10:31;66.50;;;31.58;;
69260;SDS011;56378;52.404;20.816;2024-03-22T02:12:57;64.15;;;30.67;;
69260;SDS011;56378;52.404;20.816;2024-03-22T02:15:23;63.53;;;29.57;;
69260;SDS011;56378;52.404;20.816;2024-03-22T02:21:11;61.22;;;27.77;;
69260;SDS011;56378;52.404;20.816;2024-03-22T02:23:37;67.13;;;30.07;;
69260;SDS011;56378;52.404;20.816;2024-03-22T02:26:04;62.42;;;28.63;;
69260;SDS011;56378;52.404;20.816;2024-03-22T02:28:31;62.08;;;29.27;;
69260;SDS011;56378;52.404;20.816;2024-03-22T02:31:12;59.67;;;27.90;;
69260;SDS011;56378;52.404;20.816;2024-03-22T02:33:38;64.03;;;27.85;;
69260;SDS011;56378;52.404;20.816;2024-03-22T02:36:04;62.10;;;26.97;;
69260;SDS011;56378;52.404;20.816;2024-03-22T02:38:30;62.80;;;27.63;;
69260;SDS011;56378;52.404;20.816;2024-03-22T02:41:09;58.70;;;25.67;;
69260;SDS011;56378;52.404;20.816;2024-03-22T02:43:35;59.38;;;27.10;;
69260;SDS011;56378;52.404;20.816;2024-03-22T02:46:00;59.03;;;26.90;;
69260;SDS011;56378;52.404;20.816;2024-03-22T02:58:05;55.97;;;24.43;;
69260;SDS011;56378;52.404;20.816;2024-03-22T03:00:39;58.80;;;24.40;;
69260;SDS011;56378;52.404;20.816;2024-03-22T03:12:40;59.30;;;23.43;;
69260;SDS011;56378;52.404;20.816;2024-03-22T03:15:06;58.92;;;24.73;;
69260;SDS011;56378;52.404;20.816;2024-03-22T03:23:57;61.03;;;24.30;;
69260;SDS011;56378;52.404;20.816;2024-03-22T03:29:23;52.70;;;21.65;;
69260;SDS011;56378;52.404;20.816;2024-03-22T03:31:49;60.10;;;22.60;;
69260;SDS011;56378;52.404;20.816;2024-03-22T03:34:14;56.58;;;22.92;;
69260;SDS011;56378;52.404;20.816;2024-03-22T03:36:40;59.77;;;22.83;;
69260;SDS011;56378;52.404;20.816;2024-03-22T03:39:09;56.58;;;22.88;;
69260;SDS011;56378;52.404;20.816;2024-03-22T03:41:35;51.70;;;23.08;;
69260;SDS011;56378;52.404;20.816;2024-03-22T03:49:51;49.60;;;22.13;;
69260;SDS011;56378;52.404;20.816;2024-03-22T03:52:17;56.07;;;23.03;;
69260;SDS011;56378;52.404;20.816;2024-03-22T03:54:43;50.30;;;23.05;;
69260;SDS011;56378;52.404;20.816;2024-03-22T03:57:18;51.57;;;22.83;;
69260;SDS011;56378;52.404;20.816;2024-03-22T04:03:06;52.60;;;22.15;;
69260;SDS011;56378;52.404;20.816;2024-03-22T04:08:35;50.30;;;21.50;;
69260;SDS011;56378;52.404;20.816;2024-03-22T04:13:49;50.60;;;21.03;;
69260;SDS011;56378;52.404;20.816;2024-03-22T04:16:30;51.22;;;22.55;;
69260;SDS011;56378;52.404;20.816;2024-03-22T04:18:57;49.30;;;21.95;;
69260;SDS011;56378;52.404;20.816;2024-03-22T04:21:22;46.10;;;20.80;;
69260;SDS011;56378;52.404;20.816;2024-03-22T04:23:48;49.00;;;21.02;;
69260;SDS011;56378;52.404;20.816;2024-03-22T04:26:14;45.53;;;19.70;;
69260;SDS011;56378;52.404;20.816;2024-03-22T04:28:40;51.95;;;22.08;;
69260;SDS011;56378;52.404;20.816;2024-03-22T04:31:07;46.50;;;20.35;;
69260;SDS011;56378;52.404;20.816;2024-03-22T04:33:34;43.50;;;19.60;;
69260;SDS011;56378;52.404;20.816;2024-03-22T04:36:03;48.78;;;20.52;;
69260;SDS011;56378;52.404;20.816;2024-03-22T04:38:29;46.60;;;20.15;;
69260;SDS011;56378;52.404;20.816;2024-03-22T04:51:01;46.72;;;19.08;;
69260;SDS011;56378;52.404;20.816;2024-03-22T05:13:18;41.28;;;17.77;;
69260;SDS011;56378;52.404;20.816;2024-03-22T05:22:41;42.25;;;17.15;;
69260;SDS011;56378;52.404;20.816;2024-03-22T05:25:08;43.78;;;18.60;;
69260;SDS011;56378;52.404;20.816;2024-03-22T05:27:36;40.58;;;18.13;;
69260;SDS011;56378;52.404;20.816;2024-03-22T05:32:53;42.65;;;17.80;;
69260;SDS011;56378;52.404;20.816;2024-03-22T05:35:20;38.40;;;16.75;;
69260;SDS011;56378;52.404;20.816;2024-03-22T05:37:45;40.15;;;17.25;;
69260;SDS011;56378;52.404;20.816;2024-03-22T05:40:12;40.27;;;17.23;;
69260;SDS011;56378;52.404;20.816;2024-03-22T05:42:38;39.78;;;17.48;;
69260;SDS011;56378;52.404;20.816;2024-03-22T05:45:04;39.30;;;17.33;;
69260;SDS011;56378;52.404;20.816;2024-03-22T05:47:31;41.78;;;17.63;;
69260;SDS011;56378;52.404;20.816;2024-03-22T05:49:58;42.58;;;17.00;;
69260;SDS011;56378;52.404;20.816;2024-03-22T05:52:24;44.45;;;17.88;;
69260;SDS011;56378;52.404;20.816;2024-03-22T05:54:50;42.92;;;17.20;;
69260;SDS011;56378;52.404;20.816;2024-03-22T05:57:16;38.63;;;16.57;;
69260;SDS011;56378;52.404;20.816;2024-03-22T05:59:42;40.65;;;17.63;;
69260;SDS011;56378;52.404;20.816;2024-03-22T06:02:08;43.77;;;18.53;;
69260;SDS011;56378;52.404;20.816;2024-03-22T06:04:33;45.70;;;19.25;;
69260;SDS011;56378;52.404;20.816;2024-03-22T06:07:00;45.90;;;20.33;;
69260;SDS011;56378;52.404;20.816;2024-03-22T06:09:29;48.83;;;21.47;;
69260;SDS011;56378;52.404;20.816;2024-03-22T06:12:13;53.20;;;22.48;;
69260;SDS011;56378;52.404;20.816;2024-03-22T06:14:41;52.40;;;23.65;;
69260;SDS011;56378;52.404;20.816;2024-03-22T06:17:08;57.88;;;24.48;;
69260;SDS011;56378;52.404;20.816;2024-03-22T06:19:34;56.97;;;24.05;;
69260;SDS011;56378;52.404;20.816;2024-03-22T06:22:00;57.50;;;23.67;;
69260;SDS011;56378;52.404;20.816;2024-03-22T06:24:27;57.78;;;24.25;;
69260;SDS011;56378;52.404;20.816;2024-03-22T06:26:53;54.33;;;24.60;;
69260;SDS011;56378;52.404;20.816;2024-03-22T06:29:23;51.20;;;22.97;;
69260;SDS011;56378;52.404;20.816;2024-03-22T06:31:57;53.22;;;22.92;;
69260;SDS011;56378;52.404;20.816;2024-03-22T06:34:23;53.33;;;22.77;;
69260;SDS011;56378;52.404;20.816;2024-03-22T06:36:50;56.08;;;23.17;;
69260;SDS011;56378;52.404;20.816;2024-03-22T06:39:16;57.10;;;23.90;;
69260;SDS011;56378;52.404;20.816;2024-03-22T06:41:42;54.33;;;22.40;;
69260;SDS011;56378;52.404;20.816;2024-03-22T06:44:08;50.65;;;20.48;;
69260;SDS011;56378;52.404;20.816;2024-03-22T06:46:37;52.67;;;21.70;;
69260;SDS011;56378;52.404;20.816;2024-03-22T06:49:03;51.85;;;21.58;;
69260;SDS011;56378;52.404;20.816;2024-03-22T06:51:35;57.13;;;20.98;;
69260;SDS011;56378;52.404;20.816;2024-03-22T06:54:01;52.08;;;21.05;;
69260;SDS011;56378;52.404;20.816;2024-03-22T06:56:27;50.40;;;20.97;;
69260;SDS011;56378;52.404;20.816;2024-03-22T06:58:53;55.33;;;22.15;;
69260;SDS011;56378;52.404;20.816;2024-03-22T07:01:19;50.27;;;21.53;;
69260;SDS011;56378;52.404;20.816;2024-03-22T07:03:46;51.75;;;23.20;;
69260;SDS011;56378;52.404;20.816;2024-03-22T07:06:13;60.53;;;25.98;;
69260;SDS011;56378;52.404;20.816;2024-03-22T07:08:40;70.45;;;31.95;;
69260;SDS011;56378;52.404;20.816;2024-03-22T07:11:06;52.43;;;23.23;;
69260;SDS011;56378;52.404;20.816;2024-03-22T07:13:32;50.90;;;22.27;;
69260;SDS011;56378;52.404;20.816;2024-03-22T07:15:58;50.20;;;21.38;;
69260;SDS011;56378;52.404;20.816;2024-03-22T07:18:23;53.10;;;20.35;;
69260;SDS011;56378;52.404;20.816;2024-03-22T07:20:49;53.13;;;21.90;;
69260;SDS011;56378;52.404;20.816;2024-03-22T07:23:15;54.63;;;22.02;;
69260;SDS011;56378;52.404;20.816;2024-03-22T07:25:42;48.33;;;20.27;;
69260;SDS011;56378;52.404;20.816;2024-03-22T07:28:11;52.75;;;21.92;;
69260;SDS011;56378;52.404;20.816;2024-03-22T07:30:37;49.10;;;20.10;;
69260;SDS011;56378;52.404;20.816;2024-03-22T07:33:03;52.60;;;21.83;;
69260;SDS011;56378;52.404;20.816;2024-03-22T07:35:29;52.90;;;22.63;;
69260;SDS011;56378;52.404;20.816;2024-03-22T07:37:56;51.80;;;22.25;;
69260;SDS011;56378;52.404;20.816;2024-03-22T07:40:24;50.37;;;20.43;;
69260;SDS011;56378;52.404;20.816;2024-03-22T07:42:50;54.70;;;20.77;;
69260;SDS011;56378;52.404;20.816;2024-03-22T07:45:15;49.63;;;20.60;;
69260;SDS011;56378;52.404;20.816;2024-03-22T07:47:41;50.45;;;21.05;;
69260;SDS011;56378;52.404;20.816;2024-03-22T07:50:09;50.85;;;20.58;;
69260;SDS011;56378;52.404;20.816;2024-03-22T07:52:35;51.95;;;20.52;;
69260;SDS011;56378;52.404;20.816;2024-03-22T07:55:00;48.07;;;19.87;;
69260;SDS011;56378;52.404;20.816;2024-03-22T07:57:29;49.58;;;20.67;;
69260;SDS011;56378;52.404;20.816;2024-03-22T07:59:58;53.88;;;20.88;;
69260;SDS011;56378;52.404;20.816;2024-03-22T08:02:24;47.90;;;19.67;;
69260;SDS011;56378;52.404;20.816;2024-03-22T08:04:49;48.83;;;20.77;;
69260;SDS011;56378;52.404;20.816;2024-03-22T08:07:15;47.07;;;19.47;;
69260;SDS011;56378;52.404;20.816;2024-03-22T08:09:42;47.35;;;19.67;;
69260;SDS011;56378;52.404;20.816;2024-03-22T08:12:17;47.25;;;20.05;;
69260;SDS011;56378;52.404;20.816;2024-03-22T08:14:45;44.78;;;18.60;;
69260;SDS011;56378;52.404;20.816;2024-03-22T08:17:11;46.03;;;19.33;;
69260;SDS011;56378;52.404;20.816;2024-03-22T08:19:37;47.95;;;19.60;;
69260;SDS011;56378;52.404;20.816;2024-03-22T08:22:03;46.92;;;19.40;;
69260;SDS011;56378;52.404;20.816;2024-03-22T08:24:29;41.60;;;18.60;;
69260;SDS011;56378;52.404;20.816;2024-03-22T08:26:55;52.70;;;20.63;;
69260;SDS011;56378;52.404;20.816;2024-03-22T08:29:21;45.30;;;18.23;;
69260;SDS011;56378;52.404;20.816;2024-03-22T08:31:51;44.78;;;19.00;;
69260;SDS011;56378;52.404;20.816;2024-03-22T08:34:23;40.25;;;17.42;;
69260;SDS011;56378;52.404;20.816;2024-03-22T08:36:53;41.50;;;18.02;;
69260;SDS011;56378;52.404;20.816;2024-03-22T08:39:19;41.63;;;17.93;;
69260;SDS011;56378;52.404;20.816;2024-03-22T08:41:45;37.50;;;17.00;;
69260;SDS011;56378;52.404;20.816;2024-03-22T08:44:11;43.10;;;18.37;;
69260;SDS011;56378;52.404;20.816;2024-03-22T08:46:36;39.85;;;17.02;;
69260;SDS011;56378;52.404;20.816;2024-03-22T08:49:02;41.23;;;17.30;;
69260;SDS011;56378;52.404;20.816;2024-03-22T08:51:28;39.38;;;16.60;;
69260;SDS011;56378;52.404;20.816;2024-03-22T08:53:55;35.87;;;16.47;;
69260;SDS011;56378;52.404;20.816;2024-03-22T08:56:21;37.65;;;16.13;;
69260;SDS011;56378;52.404;20.816;2024-03-22T08:58:46;37.43;;;16.33;;
69260;SDS011;56378;52.404;20.816;2024-03-22T09:01:12;45.27;;;16.13;;
69260;SDS011;56378;52.404;20.816;2024-03-22T09:03:38;63.35;;;18.25;;
69260;SDS011;56378;52.404;20.816;2024-03-22T09:06:04;42.70;;;16.13;;
69260;SDS011;56378;52.404;20.816;2024-03-22T09:08:30;34.03;;;14.55;;
69260;SDS011;56378;52.404;20.816;2024-03-22T09:10:56;36.03;;;15.13;;
69260;SDS011;56378;52.404;20.816;2024-03-22T09:13:22;33.90;;;14.20;;
69260;SDS011;56378;52.404;20.816;2024-03-22T09:15:48;38.13;;;16.27;;
69260;SDS011;56378;52.404;20.816;2024-03-22T09:18:21;34.85;;;15.38;;
69260;SDS011;56378;52.404;20.816;2024-03-22T09:20:46;33.87;;;14.37;;
69260;SDS011;56378;52.404;20.816;2024-03-22T09:23:12;35.38;;;14.98;;
69260;SDS011;56378;52.404;20.816;2024-03-22T09:25:38;34.17;;;14.10;;
69260;SDS011;56378;52.404;20.816;2024-03-22T09:28:04;29.73;;;14.03;;
69260;SDS011;56378;52.404;20.816;2024-03-22T09:30:29;31.13;;;14.15;;
69260;SDS011;56378;52.404;20.816;2024-03-22T09:32:55;28.40;;;13.83;;
69260;SDS011;56378;52.404;20.816;2024-03-22T09:35:21;28.05;;;12.85;;
69260;SDS011;56378;52.404;20.816;2024-03-22T09:37:46;29.90;;;13.10;;
69260;SDS011;56378;52.404;20.816;2024-03-22T09:40:12;24.92;;;12.23;;
69260;SDS011;56378;52.404;20.816;2024-03-22T09:42:38;29.17;;;13.00;;
69260;SDS011;56378;52.404;20.816;2024-03-22T09:45:09;28.00;;;13.52;;
69260;SDS011;56378;52.404;20.816;2024-03-22T09:47:37;29.85;;;12.85;;
69260;SDS011;56378;52.404;20.816;2024-03-22T09:50:06;30.13;;;13.68;;
69260;SDS011;56378;52.404;20.816;2024-03-22T09:52:33;30.25;;;13.55;;
69260;SDS011;56378;52.404;20.816;2024-03-22T09:55:00;30.63;;;14.03;;
69260;SDS011;56378;52.404;20.816;2024-03-22T09:57:29;30.45;;;13.75;;
69260;SDS011;56378;52.404;20.816;2024-03-22T09:59:55;28.40;;;14.02;;
69260;SDS011;56378;52.404;20.816;2024-03-22T10:02:22;32.38;;;14.32;;
69260;SDS011;56378;52.404;20.816;2024-03-22T10:04:50;29.17;;;13.75;;
69260;SDS011;56378;52.404;20.816;2024-03-22T10:07:17;26.67;;;13.40;;
69260;SDS011;56378;52.404;20.816;2024-03-22T10:09:44;27.10;;;13.10;;
69260;SDS011;56378;52.404;20.816;2024-03-22T10:12:09;33.35;;;13.48;;
69260;SDS011;56378;52.404;20.816;2024-03-22T10:14:35;29.97;;;13.13;;
69260;SDS011;56378;52.404;20.816;2024-03-22T10:17:02;27.88;;;12.82;;
69260;SDS011;56378;52.404;20.816;2024-03-22T10:19:28;28.58;;;14.10;;
69260;SDS011;56378;52.404;20.816;2024-03-22T10:22:00;31.70;;;13.90;;
69260;SDS011;56378;52.404;20.816;2024-03-22T10:24:29;32.75;;;13.30;;
69260;SDS011;56378;52.404;20.816;2024-03-22T10:26:55;32.65;;;14.20;;
69260;SDS011;56378;52.404;20.816;2024-03-22T10:29:22;31.15;;;13.57;;
69260;SDS011;56378;52.404;20.816;2024-03-22T10:31:49;29.40;;;14.50;;
69260;SDS011;56378;52.404;20.816;2024-03-22T10:34:17;29.10;;;14.53;;
69260;SDS011;56378;52.404;20.816;2024-03-22T10:36:43;27.15;;;13.32;;
69260;SDS011;56378;52.404;20.816;2024-03-22T10:39:10;29.80;;;13.73;;
69260;SDS011;56378;52.404;20.816;2024-03-22T10:41:40;30.63;;;14.52;;
69260;SDS011;56378;52.404;20.816;2024-03-22T10:44:06;30.57;;;14.77;;
69260;SDS011;56378;52.404;20.816;2024-03-22T10:46:33;29.73;;;14.10;;
69260;SDS011;56378;52.404;20.816;2024-03-22T10:49:00;30.77;;;15.52;;
69260;SDS011;56378;52.404;20.816;2024-03-22T10:51:30;29.92;;;13.90;;
69260;SDS011;56378;52.404;20.816;2024-03-22T10:53:59;27.80;;;13.50;;
69260;SDS011;56378;52.404;20.816;2024-03-22T10:56:28;28.48;;;13.82;;
69260;SDS011;56378;52.404;20.816;2024-03-22T10:58:54;29.05;;;14.18;;
69260;SDS011;56378;52.404;20.816;2024-03-22T11:01:23;29.50;;;14.07;;
69260;SDS011;56378;52.404;20.816;2024-03-22T11:03:50;27.40;;;14.63;;
69260;SDS011;56378;52.404;20.816;2024-03-22T11:06:19;28.52;;;13.90;;
69260;SDS011;56378;52.404;20.816;2024-03-22T11:08:51;29.33;;;13.85;;
69260;SDS011;56378;52.404;20.816;2024-03-22T11:11:20;30.80;;;14.07;;
69260;SDS011;56378;52.404;20.816;2024-03-22T11:13:48;26.02;;;13.07;;
69260;SDS011;56378;52.404;20.816;2024-03-22T11:16:14;26.87;;;13.83;;
69260;SDS011;56378;52.404;20.816;2024-03-22T11:18:40;26.98;;;13.93;;
69260;SDS011;56378;52.404;20.816;2024-03-22T11:21:06;25.13;;;13.35;;
69260;SDS011;56378;52.404;20.816;2024-03-22T11:23:34;27.37;;;12.87;;
69260;SDS011;56378;52.404;20.816;2024-03-22T11:26:01;24.90;;;12.30;;
69260;SDS011;56378;52.404;20.816;2024-03-22T11:28:28;22.10;;;11.77;;
69260;SDS011;56378;52.404;20.816;2024-03-22T11:30:54;22.88;;;11.60;;
69260;SDS011;56378;52.404;20.816;2024-03-22T11:33:19;21.03;;;10.77;;
69260;SDS011;56378;52.404;20.816;2024-03-22T11:35:46;20.13;;;10.23;;
69260;SDS011;56378;52.404;20.816;2024-03-22T11:38:11;19.98;;;9.90;;
69260;SDS011;56378;52.404;20.816;2024-03-22T11:40:37;18.00;;;9.63;;
69260;SDS011;56378;52.404;20.816;2024-03-22T11:43:03;17.63;;;8.85;;
69260;SDS011;56378;52.404;20.816;2024-03-22T11:45:30;17.33;;;8.80;;
69260;SDS011;56378;52.404;20.816;2024-03-22T11:48:01;17.87;;;8.80;;
69260;SDS011;56378;52.404;20.816;2024-03-22T11:50:27;17.58;;;8.93;;
69260;SDS011;56378;52.404;20.816;2024-03-22T11:52:53;16.15;;;8.00;;
69260;SDS011;56378;52.404;20.816;2024-03-22T11:55:19;16.33;;;8.70;;
69260;SDS011;56378;52.404;20.816;2024-03-22T11:57:48;17.88;;;8.52;;
69260;SDS011;56378;52.404;20.816;2024-03-22T12:00:14;16.95;;;8.50;;
69260;SDS011;56378;52.404;20.816;2024-03-22T12:02:42;18.95;;;8.65;;
69260;SDS011;56378;52.404;20.816;2024-03-22T12:05:09;17.83;;;8.90;;
69260;SDS011;56378;52.404;20.816;2024-03-22T12:07:35;18.45;;;9.35;;
69260;SDS011;56378;52.404;20.816;2024-03-22T12:10:01;16.95;;;8.50;;
69260;SDS011;56378;52.404;20.816;2024-03-22T12:12:28;17.38;;;8.77;;
69260;SDS011;56378;52.404;20.816;2024-03-22T12:14:54;20.02;;;9.15;;
69260;SDS011;56378;52.404;20.816;2024-03-22T12:17:20;18.73;;;9.17;;
69260;SDS011;56378;52.404;20.816;2024-03-22T12:19:46;20.80;;;9.82;;
69260;SDS011;56378;52.404;20.816;2024-03-22T12:22:12;18.67;;;8.80;;
69260;SDS011;56378;52.404;20.816;2024-03-22T12:24:38;17.43;;;8.77;;
69260;SDS011;56378;52.404;20.816;2024-03-22T12:27:03;16.70;;;7.97;;
69260;SDS011;56378;52.404;20.816;2024-03-22T12:29:32;19.27;;;8.67;;
69260;SDS011;56378;52.404;20.816;2024-03-22T12:31:58;17.58;;;8.15;;
69260;SDS011;56378;52.404;20.816;2024-03-22T12:34:26;18.88;;;8.75;;
69260;SDS011;56378;52.404;20.816;2024-03-22T12:36:54;15.90;;;8.05;;
69260;SDS011;56378;52.404;20.816;2024-03-22T12:39:20;18.63;;;8.23;;
69260;SDS011;56378;52.404;20.816;2024-03-22T12:41:46;16.48;;;8.05;;
69260;SDS011;56378;52.404;20.816;2024-03-22T12:44:12;16.65;;;7.65;;
69260;SDS011;56378;52.404;20.816;2024-03-22T12:46:37;16.47;;;8.03;;
69260;SDS011;56378;52.404;20.816;2024-03-22T12:49:03;17.02;;;8.20;;
69260;SDS011;56378;52.404;20.816;2024-03-22T12:51:29;18.40;;;8.20;;
69260;SDS011;56378;52.404;20.816;2024-03-22T12:53:55;15.93;;;8.13;;
69260;SDS011;56378;52.404;20.816;2024-03-22T12:56:21;19.08;;;7.93;;
69260;SDS011;56378;52.404;20.816;2024-03-22T12:58:47;17.43;;;8.83;;
69260;SDS011;56378;52.404;20.816;2024-03-22T13:01:13;15.80;;;7.90;;
69260;SDS011;56378;52.404;20.816;2024-03-22T13:03:39;17.75;;;8.20;;
69260;SDS011;56378;52.404;20.816;2024-03-22T13:06:05;20.65;;;8.90;;
69260;SDS011;56378;52.404;20.816;2024-03-22T13:08:31;17.50;;;8.50;;
69260;SDS011;56378;52.404;20.816;2024-03-22T13:10:57;17.03;;;8.23;;
69260;SDS011;56378;52.404;20.816;2024-03-22T13:13:23;19.65;;;10.00;;
69260;SDS011;56378;52.404;20.816;2024-03-22T13:15:49;24.88;;;12.25;;
69260;SDS011;56378;52.404;20.816;2024-03-22T13:18:14;20.40;;;10.13;;
69260;SDS011;56378;52.404;20.816;2024-03-22T13:20:40;16.53;;;8.77;;
69260;SDS011;56378;52.404;20.816;2024-03-22T13:23:06;18.17;;;8.70;;
69260;SDS011;56378;52.404;20.816;2024-03-22T13:25:34;17.83;;;9.07;;
69260;SDS011;56378;52.404;20.816;2024-03-22T13:28:02;25.15;;;11.25;;
69260;SDS011;56378;52.404;20.816;2024-03-22T13:30:29;18.15;;;9.68;;
69260;SDS011;56378;52.404;20.816;2024-03-22T13:32:54;16.90;;;8.60;;
69260;SDS011;56378;52.404;20.816;2024-03-22T13:35:21;19.27;;;10.15;;
69260;SDS011;56378;52.404;20.816;2024-03-22T13:37:47;19.40;;;10.27;;
69260;SDS011;56378;52.404;20.816;2024-03-22T13:40:12;19.58;;;9.77;;
69260;SDS011;56378;52.404;20.816;2024-03-22T13:42:38;22.80;;;11.23;;
69260;SDS011;56378;52.404;20.816;2024-03-22T13:45:04;19.02;;;10.32;;
69260;SDS011;56378;52.404;20.816;2024-03-22T13:47:30;20.15;;;10.50;;
69260;SDS011;56378;52.404;20.816;2024-03-22T13:49:55;20.57;;;10.13;;
69260;SDS011;56378;52.404;20.816;2024-03-22T13:52:21;23.03;;;10.90;;
69260;SDS011;56378;52.404;20.816;2024-03-22T13:54:47;19.80;;;10.90;;
69260;SDS011;56378;52.404;20.816;2024-03-22T13:57:13;22.55;;;10.95;;
69260;SDS011;56378;52.404;20.816;2024-03-22T13:59:38;21.50;;;10.13;;
69260;SDS011;56378;52.404;20.816;2024-03-22T14:02:05;22.67;;;11.02;;
69260;SDS011;56378;52.404;20.816;2024-03-22T14:04:32;21.08;;;10.77;;
69260;SDS011;56378;52.404;20.816;2024-03-22T14:06:58;23.00;;;10.95;;
69260;SDS011;56378;52.404;20.816;2024-03-22T14:09:24;21.73;;;10.90;;
69260;SDS011;56378;52.404;20.816;2024-03-22T14:11:51;23.08;;;10.93;;
69260;SDS011;56378;52.404;20.816;2024-03-22T14:14:17;21.27;;;10.47;;
69260;SDS011;56378;52.404;20.816;2024-03-22T14:16:42;22.33;;;10.45;;
69260;SDS011;56378;52.404;20.816;2024-03-22T14:19:08;19.47;;;10.13;;
69260;SDS011;56378;52.404;20.816;2024-03-22T14:21:34;22.83;;;10.98;;
69260;SDS011;56378;52.404;20.816;2024-03-22T14:24:00;18.70;;;9.85;;
69260;SDS011;56378;52.404;20.816;2024-03-22T14:26:25;21.53;;;10.53;;
69260;SDS011;56378;52.404;20.816;2024-03-22T14:28:51;19.48;;;10.48;;
69260;SDS011;56378;52.404;20.816;2024-03-22T14:31:18;22.85;;;10.45;;
69260;SDS011;56378;52.404;20.816;2024-03-22T14:33:44;20.80;;;10.53;;
69260;SDS011;56378;52.404;20.816;2024-03-22T14:36:10;20.95;;;10.75;;
69260;SDS011;56378;52.404;20.816;2024-03-22T14:38:38;21.73;;;11.48;;
69260;SDS011;56378;52.404;20.816;2024-03-22T14:41:04;22.75;;;11.95;;
69260;SDS011;56378;52.404;20.816;2024-03-22T14:43:30;24.17;;;11.97;;
69260;SDS011;56378;52.404;20.816;2024-03-22T14:45:59;23.23;;;11.70;;
69260;SDS011;56378;52.404;20.816;2024-03-22T14:48:27;24.23;;;12.48;;
69260;SDS011;56378;52.404;20.816;2024-03-22T14:50:54;24.83;;;12.50;;
69260;SDS011;56378;52.404;20.816;2024-03-22T14:53:20;28.67;;;14.40;;
69260;SDS011;56378;52.404;20.816;2024-03-22T14:55:56;23.70;;;12.32;;
69260;SDS011;56378;52.404;20.816;2024-03-22T14:58:27;27.10;;;13.43;;
69260;SDS011;56378;52.404;20.816;2024-03-22T15:00:53;23.63;;;12.18;;
69260;SDS011;56378;52.404;20.816;2024-03-22T15:03:19;24.23;;;13.00;;
69260;SDS011;56378;52.404;20.816;2024-03-22T15:05:45;27.93;;;13.37;;
69260;SDS011;56378;52.404;20.816;2024-03-22T15:08:11;25.77;;;13.43;;
69260;SDS011;56378;52.404;20.816;2024-03-22T15:10:37;26.23;;;13.93;;
69260;SDS011;56378;52.404;20.816;2024-03-22T15:13:03;28.48;;;14.30;;
69260;SDS011;56378;52.404;20.816;2024-03-22T15:15:29;26.45;;;14.43;;
69260;SDS011;56378;52.404;20.816;2024-03-22T15:17:55;26.67;;;14.20;;
69260;SDS011;56378;52.404;20.816;2024-03-22T15:20:20;28.40;;;14.40;;
69260;SDS011;56378;52.404;20.816;2024-03-22T15:22:46;28.70;;;14.50;;
69260;SDS011;56378;52.404;20.816;2024-03-22T15:25:12;25.27;;;13.73;;
69260;SDS011;56378;52.404;20.816;2024-03-22T15:27:37;26.40;;;14.45;;
69260;SDS011;56378;52.404;20.816;2024-03-22T15:30:04;31.03;;;15.13;;
69260;SDS011;56378;52.404;20.816;2024-03-22T15:32:31;26.48;;;13.35;;
69260;SDS011;56378;52.404;20.816;2024-03-22T15:34:57;28.90;;;14.00;;